Time;durP1;ratioP1;P1;durP2;ratioP2;P2;SDS_P1;SDS_P2;PMS_P1;PMS_P2;Temp;Humidity;BMP_temperature;BMP_pressure;BME280_temperature;BME280_humidity;BME280_pressure;Samples;Min_cycle;Max_cycle;Signal;HPM_P1;HPM_P2
2022/06/11 00:01:35;;;;;;;;;;;24.80;46.00;;;;;;1623441;72;671;-58
2022/06/11 00:03:37;;;;;;;;;;;24.80;46.20;;;;;;1617428;72;816;-60
2022/06/11 00:05:39;;;;;;;;;;;24.80;46.20;;;;;;1618691;72;1165;-60
2022/06/11 00:07:41;;;;;;;;;;;24.80;46.20;;;;;;1601398;72;730;-57
2022/06/11 00:09:43;;;;;;;;;;;24.80;46.20;;;;;;1611486;72;737;-59
2022/06/11 00:11:45;;;;;;;;;;;24.80;46.30;;;;;;1614172;72;760;-59
2022/06/11 00:13:47;;;;;;;;;;;24.80;46.30;;;;;;1614472;72;1535;-60
2022/06/11 00:15:52;;;;;;;;;;;24.70;46.40;;;;;;1610771;72;1167;-60
2022/06/11 00:17:57;;;;;;;;;;;24.80;46.40;;;;;;1608579;72;717;-60
2022/06/11 00:19:58;;;;;;;;;;;24.70;46.40;;;;;;1604455;72;1936;-60
2022/06/11 00:21:59;;;;;;;;;;;24.80;46.30;;;;;;1623660;72;699;-60
2022/06/11 00:24:02;;;;;;;;;;;24.80;46.40;;;;;;1600069;72;738;-59
2022/06/11 00:26:04;;;;;;;;;;;24.70;46.40;;;;;;1615447;72;1571;-58
2022/06/11 00:28:06;;;;;;;;;;;24.80;46.40;;;;;;1622143;72;808;-58
2022/06/11 00:30:11;;;;;;;;;;;24.70;46.40;;;;;;1614673;72;728;-59
2022/06/11 00:32:13;;;;;;;;;;;24.70;46.40;;;;;;1612353;72;1661;-60
2022/06/11 00:34:14;;;;;;;;;;;24.70;46.50;;;;;;1614031;72;724;-58
2022/06/11 00:36:18;;;;;;;;;;;24.70;46.50;;;;;;1597407;72;1124;-60
2022/06/11 00:38:20;;;;;;;;;;;24.70;46.50;;;;;;1600518;72;718;-58
2022/06/11 00:40:23;;;;;;;;;;;24.60;46.30;;;;;;1610553;72;1916;-60
2022/06/11 00:42:26;;;;;;;;;;;24.60;46.30;;;;;;1607218;72;829;-58
2022/06/11 00:44:28;;;;;;;;;;;24.70;46.40;;;;;;1616441;72;736;-60
2022/06/11 00:46:37;;;;;;;;;;;24.70;46.50;;;;;;1607136;72;1142;-58
2022/06/11 00:48:40;;;;;;;;;;;24.70;46.50;;;;;;1614198;72;723;-59
2022/06/11 00:50:43;;;;;;;;;;;24.60;46.40;;;;;;1608903;72;787;-59
2022/06/11 00:52:45;;;;;;;;;;;24.60;46.40;;;;;;1602079;72;696;-60
2022/06/11 00:54:48;;;;;;;;;;;24.60;46.40;;;;;;1613884;72;1594;-60
2022/06/11 00:56:52;;;;;;;;;;;24.60;46.50;;;;;;1628238;72;1144;-60
2022/06/11 00:58:55;;;;;;;;;;;24.60;46.50;;;;;;1613243;72;756;-60
2022/06/11 01:00:58;;;;;;;;;;;24.60;46.50;;;;;;1620027;72;1937;-59
2022/06/11 01:03:00;;;;;;;;;;;24.60;46.50;;;;;;1619948;72;764;-57
2022/06/11 01:05:02;;;;;;;;;;;24.70;46.60;;;;;;1611280;72;789;-60
2022/06/11 01:07:15;;;;;;;;;;;24.70;46.60;;;;;;1611728;72;1121;-60
2022/06/11 01:09:21;;;;;;;;;;;24.60;46.50;;;;;;1612860;72;1594;-58
2022/06/11 01:11:40;;;;;;;;;;;24.60;46.50;;;;;;1616216;72;1863;-60
2022/06/11 01:14:02;;;;;;;;;;;24.60;46.50;;;;;;1611470;72;1968;-59
2022/06/11 01:16:05;;;;;;;;;;;24.50;46.50;;;;;;1619970;72;1880;-59
2022/06/11 01:18:09;;;;;;;;;;;24.60;46.50;;;;;;1612225;72;1561;-60
2022/06/11 01:20:12;;;;;;;;;;;24.50;46.50;;;;;;1611599;72;1918;-60
2022/06/11 01:22:33;;;;;;;;;;;24.60;46.50;;;;;;1614701;72;1504;-59
2022/06/11 01:24:39;;;;;;;;;;;24.60;46.60;;;;;;1603314;72;704;-59
2022/06/11 01:26:59;;;;;;;;;;;24.60;46.60;;;;;;1601398;72;1144;-58
2022/06/11 01:29:19;;;;;;;;;;;24.50;46.60;;;;;;1615209;72;674;-59
2022/06/11 01:31:28;;;;;;;;;;;24.50;46.70;;;;;;1618007;72;726;-59
2022/06/11 01:33:31;;;;;;;;;;;24.50;46.70;;;;;;1612984;72;732;-57
2022/06/11 01:35:34;;;;;;;;;;;24.50;46.70;;;;;;1615690;72;1212;-56
2022/06/11 01:37:38;;;;;;;;;;;24.50;46.80;;;;;;1600335;72;1373;-59
2022/06/11 01:39:41;;;;;;;;;;;24.50;46.80;;;;;;1611359;72;1936;-57
2022/06/11 01:41:51;;;;;;;;;;;24.50;46.80;;;;;;1604777;72;1656;-57
2022/06/11 01:43:54;;;;;;;;;;;24.40;46.60;;;;;;1596721;72;737;-59
2022/06/11 01:45:56;;;;;;;;;;;24.40;46.70;;;;;;1613213;72;1154;-57
2022/06/11 01:47:58;;;;;;;;;;;24.40;46.70;;;;;;1614518;72;681;-56
2022/06/11 01:50:00;;;;;;;;;;;24.50;46.70;;;;;;1614447;72;608;-58
2022/06/11 01:52:03;;;;;;;;;;;24.50;46.70;;;;;;1615288;72;1652;-59
2022/06/11 01:54:24;;;;;;;;;;;24.40;46.60;;;;;;1607700;72;1921;-59
2022/06/11 01:56:30;;;;;;;;;;;24.40;46.60;;;;;;1618094;72;1150;-59
2022/06/11 01:58:40;;;;;;;;;;;24.50;46.70;;;;;;1601811;72;729;-59
2022/06/11 02:00:46;;;;;;;;;;;24.50;46.70;;;;;;1611369;72;1920;-58
2022/06/11 02:02:55;;;;;;;;;;;24.40;46.50;;;;;;1618484;72;1766;-58
2022/06/11 02:05:11;;;;;;;;;;;24.40;46.60;;;;;;1607437;72;1527;-57
2022/06/11 02:07:17;;;;;;;;;;;24.40;46.60;;;;;;1608203;72;1905;-60
2022/06/11 02:09:30;;;;;;;;;;;24.40;46.70;;;;;;1613399;72;711;-57
2022/06/11 02:11:39;;;;;;;;;;;24.50;46.70;;;;;;1603404;72;1910;-60
2022/06/11 02:13:55;;;;;;;;;;;24.40;46.60;;;;;;1596866;72;734;-59
2022/06/11 02:15:58;;;;;;;;;;;24.40;46.70;;;;;;1617312;72;2214;-58
2022/06/11 02:18:08;;;;;;;;;;;24.50;46.80;;;;;;1615823;72;704;-59
2022/06/11 02:20:17;;;;;;;;;;;24.50;46.80;;;;;;1614066;72;1905;-60
2022/06/11 02:22:21;;;;;;;;;;;24.40;46.60;;;;;;1611892;72;1697;-56
2022/06/11 02:24:27;;;;;;;;;;;24.50;46.70;;;;;;1614608;72;1921;-57
2022/06/11 02:26:30;;;;;;;;;;;24.50;46.50;;;;;;1603119;72;1177;-57
2022/06/11 02:28:33;;;;;;;;;;;24.50;46.50;;;;;;1581456;73;783;-59
2022/06/11 02:30:34;;;;;;;;;;;24.50;46.40;;;;;;1611712;72;781;-60
2022/06/11 02:32:36;;;;;;;;;;;24.50;46.30;;;;;;1581239;73;1541;-60
2022/06/11 02:34:39;;;;;;;;;;;24.60;46.30;;;;;;1609016;72;779;-60
2022/06/11 02:36:48;;;;;;;;;;;24.60;46.20;;;;;;1611818;72;1195;-60
2022/06/11 02:38:51;;;;;;;;;;;24.70;46.30;;;;;;1600238;72;869;-58
2022/06/11 02:40:54;;;;;;;;;;;24.70;46.20;;;;;;1615747;72;1902;-60
2022/06/11 02:42:56;;;;;;;;;;;24.70;46.10;;;;;;1607652;72;1022;-57
2022/06/11 02:44:58;;;;;;;;;;;24.70;46.00;;;;;;1608524;72;837;-57
2022/06/11 02:47:00;;;;;;;;;;;24.70;46.00;;;;;;1615773;72;1335;-60
2022/06/11 02:49:02;;;;;;;;;;;24.80;46.00;;;;;;1608285;72;793;-60
2022/06/11 02:51:04;;;;;;;;;;;24.80;45.80;;;;;;1602415;72;778;-60
2022/06/11 02:53:06;;;;;;;;;;;24.80;45.80;;;;;;1612871;72;729;-60
2022/06/11 02:55:09;;;;;;;;;;;24.80;45.80;;;;;;1616651;72;726;-59
2022/06/11 02:57:14;;;;;;;;;;;24.70;45.80;;;;;;1610367;72;1118;-59
2022/06/11 02:59:16;;;;;;;;;;;24.70;46.00;;;;;;1614892;72;776;-59
2022/06/11 03:01:19;;;;;;;;;;;24.60;46.00;;;;;;1606981;72;1930;-59
2022/06/11 03:03:22;;;;;;;;;;;24.50;46.10;;;;;;1600402;72;716;-58
2022/06/11 03:05:24;;;;;;;;;;;24.40;46.20;;;;;;1614134;72;708;-59
2022/06/11 03:07:26;;;;;;;;;;;24.40;46.30;;;;;;1617072;72;763;-59
2022/06/11 03:09:29;;;;;;;;;;;24.40;46.60;;;;;;1613568;72;764;-57
2022/06/11 03:11:31;;;;;;;;;;;24.30;46.60;;;;;;1613937;72;805;-60
2022/06/11 03:13:33;;;;;;;;;;;24.40;46.60;;;;;;1605470;72;759;-59
2022/06/11 03:15:35;;;;;;;;;;;24.30;46.60;;;;;;1616008;72;1547;-60
2022/06/11 03:17:37;;;;;;;;;;;24.40;46.70;;;;;;1616717;72;723;-59
2022/06/11 03:19:39;;;;;;;;;;;24.30;46.80;;;;;;1615384;72;729;-57
2022/06/11 03:21:42;;;;;;;;;;;24.30;46.70;;;;;;1612215;72;1884;-58
2022/06/11 03:23:43;;;;;;;;;;;24.30;46.70;;;;;;1613957;72;805;-58
2022/06/11 03:25:45;;;;;;;;;;;24.40;46.50;;;;;;1608228;72;1158;-58
2022/06/11 03:27:47;;;;;;;;;;;24.40;46.70;;;;;;1614579;72;1031;-60
2022/06/11 03:29:49;;;;;;;;;;;24.40;46.50;;;;;;1621006;72;1507;-60
2022/06/11 03:31:51;;;;;;;;;;;24.50;46.50;;;;;;1617479;72;788;-60
2022/06/11 03:33:53;;;;;;;;;;;24.60;46.30;;;;;;1600014;72;892;-60
2022/06/11 03:35:55;;;;;;;;;;;24.50;46.20;;;;;;1618781;72;1181;-59
2022/06/11 03:37:57;;;;;;;;;;;24.60;46.10;;;;;;1605561;73;745;-60
2022/06/11 03:39:59;;;;;;;;;;;24.70;46.10;;;;;;1621683;72;742;-57
2022/06/11 03:42:01;;;;;;;;;;;24.70;45.80;;;;;;1613136;72;1932;-59
2022/06/11 03:44:03;;;;;;;;;;;24.70;45.70;;;;;;1608083;72;1458;-57
2022/06/11 03:46:05;;;;;;;;;;;24.80;45.60;;;;;;1614160;72;1108;-60
2022/06/11 03:48:07;;;;;;;;;;;24.80;45.50;;;;;;1617124;72;773;-60
2022/06/11 03:50:11;;;;;;;;;;;24.70;45.70;;;;;;1613675;72;799;-58
2022/06/11 03:52:13;;;;;;;;;;;24.70;45.80;;;;;;1612880;72;771;-60
2022/06/11 03:54:15;;;;;;;;;;;24.70;45.70;;;;;;1600914;72;750;-59
2022/06/11 03:56:17;;;;;;;;;;;24.80;45.60;;;;;;1617470;72;1088;-58
2022/06/11 03:58:19;;;;;;;;;;;24.90;45.40;;;;;;1614411;72;1572;-60
2022/06/11 04:01:14;;;;;;;;;;;24.90;45.40;;;;;;1611454;72;1912;-59
2022/06/11 04:02:26;;;;;;;;;;;24.90;45.30;;;;;;1599766;72;1463;-60
2022/06/11 04:04:28;;;;;;;;;;;24.90;45.30;;;;;;1615038;72;719;-59
2022/06/11 04:06:31;;;;;;;;;;;25.00;45.20;;;;;;1611811;72;1216;-59
2022/06/11 04:08:33;;;;;;;;;;;25.00;45.10;;;;;;1614241;72;697;-60
2022/06/11 04:10:37;;;;;;;;;;;25.00;45.00;;;;;;1597213;72;736;-60
2022/06/11 04:12:38;;;;;;;;;;;25.00;45.00;;;;;;1615510;72;1552;-59
2022/06/11 04:14:40;;;;;;;;;;;25.00;45.00;;;;;;1602400;72;730;-57
2022/06/11 04:16:44;;;;;;;;;;;25.00;45.00;;;;;;1614583;72;1138;-57
2022/06/11 04:18:48;;;;;;;;;;;25.00;45.00;;;;;;1617011;72;933;-57
2022/06/11 04:20:50;;;;;;;;;;;25.00;45.10;;;;;;1610928;72;1918;-59
2022/06/11 04:22:51;;;;;;;;;;;24.80;45.00;;;;;;1614268;72;758;-60
2022/06/11 04:24:53;;;;;;;;;;;24.90;45.00;;;;;;1617259;72;703;-60
2022/06/11 04:26:56;;;;;;;;;;;24.90;45.00;;;;;;1612292;72;1189;-59
2022/06/11 04:29:00;;;;;;;;;;;24.90;45.00;;;;;;1614333;72;681;-59
2022/06/11 04:31:01;;;;;;;;;;;24.90;45.00;;;;;;1613410;72;1475;-57
2022/06/11 04:33:03;;;;;;;;;;;24.80;44.90;;;;;;1614075;72;713;-59
2022/06/11 04:35:06;;;;;;;;;;;24.80;45.00;;;;;;1613797;72;787;-57
2022/06/11 04:37:13;;;;;;;;;;;24.80;45.00;;;;;;1617673;72;1165;-59
2022/06/11 04:39:11;;;;;;;;;;;24.80;45.00;;;;;;1612269;72;1592;-60
2022/06/11 04:41:13;;;;;;;;;;;24.80;45.00;;;;;;1613970;72;1940;-60
2022/06/11 04:43:15;;;;;;;;;;;24.60;45.00;;;;;;1614579;72;783;-58
2022/06/11 04:45:18;;;;;;;;;;;24.60;45.00;;;;;;1613432;72;771;-58
2022/06/11 04:47:21;;;;;;;;;;;24.60;44.90;;;;;;1616830;72;1078;-57
2022/06/11 04:49:23;;;;;;;;;;;24.60;44.90;;;;;;1613091;72;758;-59
2022/06/11 04:51:25;;;;;;;;;;;24.60;44.90;;;;;;1611933;72;784;-57
2022/06/11 04:53:27;;;;;;;;;;;24.50;44.90;;;;;;1612260;72;1551;-58
2022/06/11 04:55:28;;;;;;;;;;;24.50;44.90;;;;;;1612275;72;1130;-59
2022/06/11 04:57:30;;;;;;;;;;;24.50;44.90;;;;;;1612486;72;795;-60
2022/06/11 04:59:32;;;;;;;;;;;24.50;44.90;;;;;;1615077;71;628;-59
2022/06/11 05:01:34;;;;;;;;;;;24.50;44.90;;;;;;1613705;72;1908;-60
2022/06/11 05:03:36;;;;;;;;;;;24.50;44.80;;;;;;1620627;72;776;-58
2022/06/11 05:05:38;;;;;;;;;;;24.50;44.80;;;;;;1631367;72;1161;-59
2022/06/11 05:07:40;;;;;;;;;;;24.50;44.80;;;;;;1612989;72;1558;-59
2022/06/11 05:09:42;;;;;;;;;;;24.50;44.80;;;;;;1621074;72;664;-59
2022/06/11 05:11:45;;;;;;;;;;;24.50;44.70;;;;;;1608562;72;817;-58
2022/06/11 05:13:47;;;;;;;;;;;24.50;44.70;;;;;;1617793;72;824;-59
2022/06/11 05:15:50;;;;;;;;;;;24.50;44.70;;;;;;1617418;72;1153;-59
2022/06/11 05:17:52;;;;;;;;;;;24.50;44.70;;;;;;1617995;72;790;-59
2022/06/11 05:19:54;;;;;;;;;;;24.50;44.70;;;;;;1614475;72;738;-60
2022/06/11 05:21:56;;;;;;;;;;;24.50;44.50;;;;;;1606374;72;1930;-56
2022/06/11 05:23:58;;;;;;;;;;;24.50;44.50;;;;;;1608597;72;702;-56
2022/06/11 05:25:59;;;;;;;;;;;24.50;44.40;;;;;;1620221;72;1090;-58
2022/06/11 05:28:02;;;;;;;;;;;24.50;44.40;;;;;;1617509;72;687;-57
2022/06/11 05:30:06;;;;;;;;;;;24.50;44.40;;;;;;1620636;72;708;-57
2022/06/11 05:32:08;;;;;;;;;;;24.50;44.30;;;;;;1621764;72;1080;-60
2022/06/11 05:34:10;;;;;;;;;;;24.50;44.30;;;;;;1624770;72;735;-58
2022/06/11 05:36:12;;;;;;;;;;;24.50;44.30;;;;;;1617033;72;1585;-60
2022/06/11 05:38:16;;;;;;;;;;;24.50;44.10;;;;;;1614975;72;725;-57
2022/06/11 05:40:19;;;;;;;;;;;24.40;44.10;;;;;;1614738;72;1771;-59
2022/06/11 05:42:21;;;;;;;;;;;24.50;44.20;;;;;;1612075;72;1917;-56
2022/06/11 05:44:24;;;;;;;;;;;24.40;44.10;;;;;;1618107;72;684;-57
2022/06/11 05:46:26;;;;;;;;;;;24.40;44.10;;;;;;1609346;72;1134;-59
2022/06/11 05:48:29;;;;;;;;;;;24.50;44.20;;;;;;1614628;72;804;-58
2022/06/11 05:50:31;;;;;;;;;;;24.40;44.10;;;;;;1610469;72;1579;-57
2022/06/11 05:52:34;;;;;;;;;;;24.50;44.20;;;;;;1613200;72;948;-57
2022/06/11 05:54:36;;;;;;;;;;;24.50;44.10;;;;;;1619398;72;740;-58
2022/06/11 05:56:38;;;;;;;;;;;24.40;44.00;;;;;;1627182;72;1140;-58
2022/06/11 05:58:41;;;;;;;;;;;24.50;44.20;;;;;;1614522;72;735;-61
2022/06/11 06:00:43;;;;;;;;;;;24.50;43.90;;;;;;1603270;72;651;-57
2022/06/11 06:02:45;;;;;;;;;;;24.50;44.20;;;;;;1621362;72;1933;-60
2022/06/11 06:04:47;;;;;;;;;;;24.60;43.90;;;;;;1624810;72;1544;-59
2022/06/11 06:06:49;;;;;;;;;;;24.60;43.90;;;;;;1609218;72;1126;-56
2022/06/11 06:08:51;;;;;;;;;;;24.60;43.90;;;;;;1617131;72;751;-60
2022/06/11 06:10:53;;;;;;;;;;;24.60;43.90;;;;;;1616089;72;793;-58
2022/06/11 06:12:55;;;;;;;;;;;24.60;43.90;;;;;;1625183;72;743;-59
2022/06/11 06:15:04;;;;;;;;;;;24.50;43.90;;;;;;1607118;72;728;-58
2022/06/11 06:17:06;;;;;;;;;;;24.50;43.90;;;;;;1603119;72;1586;-61
2022/06/11 06:19:08;;;;;;;;;;;24.50;43.90;;;;;;1614059;72;1572;-58
2022/06/11 06:21:10;;;;;;;;;;;24.50;43.90;;;;;;1612114;72;1940;-59
2022/06/11 06:23:12;;;;;;;;;;;24.50;43.90;;;;;;1600786;72;673;-59
2022/06/11 06:25:20;;;;;;;;;;;24.50;44.00;;;;;;1617736;72;821;-58
2022/06/11 06:27:22;;;;;;;;;;;24.50;44.10;;;;;;1621920;72;1597;-58
2022/06/11 06:29:24;;;;;;;;;;;24.60;44.30;;;;;;1612360;72;701;-57
2022/06/11 06:31:26;;;;;;;;;;;24.50;45.00;;;;;;1625740;72;694;-59
2022/06/11 06:33:30;;;;;;;;;;;24.50;45.70;;;;;;1612667;72;1659;-59
2022/06/11 06:35:31;;;;;;;;;;;24.40;45.50;;;;;;1614822;72;1672;-60
2022/06/11 06:37:33;;;;;;;;;;;24.40;45.40;;;;;;1623796;72;757;-60
2022/06/11 06:39:35;;;;;;;;;;;24.50;45.10;;;;;;1629611;72;709;-57
2022/06/11 06:41:37;;;;;;;;;;;24.60;45.10;;;;;;1611189;72;1938;-58
2022/06/11 06:43:39;;;;;;;;;;;24.60;45.00;;;;;;1603014;72;751;-60
2022/06/11 06:45:41;;;;;;;;;;;24.70;44.90;;;;;;1630553;72;1621;-58
2022/06/11 06:47:42;;;;;;;;;;;24.70;44.90;;;;;;1618357;72;816;-59
2022/06/11 06:49:45;;;;;;;;;;;24.70;45.10;;;;;;1621290;72;780;-59
2022/06/11 06:51:46;;;;;;;;;;;24.80;45.00;;;;;;1612071;72;750;-60
2022/06/11 06:53:48;;;;;;;;;;;24.90;44.50;;;;;;1619294;72;715;-57
2022/06/11 06:55:50;;;;;;;;;;;25.00;44.40;;;;;;1617421;72;1144;-58
2022/06/11 06:57:52;;;;;;;;;;;25.10;44.10;;;;;;1622160;72;773;-59
2022/06/11 06:59:54;;;;;;;;;;;25.10;43.50;;;;;;1622407;72;1554;-59
2022/06/11 07:01:56;;;;;;;;;;;25.20;43.80;;;;;;1622902;72;1926;-60
2022/06/11 07:03:58;;;;;;;;;;;25.20;43.60;;;;;;1613266;72;788;-60
2022/06/11 07:06:03;;;;;;;;;;;25.30;43.30;;;;;;1606336;72;1161;-60
2022/06/11 07:08:06;;;;;;;;;;;25.20;43.10;;;;;;1615360;72;770;-58
2022/06/11 07:10:08;;;;;;;;;;;25.20;43.10;;;;;;1613696;72;652;-57
2022/06/11 07:12:10;;;;;;;;;;;25.20;43.30;;;;;;1625438;72;655;-59
2022/06/11 07:14:12;;;;;;;;;;;25.30;43.10;;;;;;1623790;72;1442;-58
2022/06/11 07:16:14;;;;;;;;;;;25.40;42.80;;;;;;1626781;71;1127;-58
2022/06/11 07:18:30;;;;;;;;;;;25.40;42.80;;;;;;1621328;72;737;-57
2022/06/11 07:20:32;;;;;;;;;;;25.50;42.70;;;;;;1619955;72;746;-57
2022/06/11 07:22:38;;;;;;;;;;;25.40;42.10;;;;;;1624372;72;1936;-58
2022/06/11 07:24:41;;;;;;;;;;;25.40;42.40;;;;;;1620985;72;750;-57
2022/06/11 07:26:44;;;;;;;;;;;25.40;42.70;;;;;;1614672;72;1126;-58
2022/06/11 07:28:46;;;;;;;;;;;25.40;42.60;;;;;;1608285;72;1286;-60
2022/06/11 07:30:49;;;;;;;;;;;25.50;42.10;;;;;;1616244;72;714;-58
2022/06/11 07:32:56;;;;;;;;;;;25.40;42.50;;;;;;1608730;72;787;-60
2022/06/11 07:35:00;;;;;;;;;;;25.50;42.30;;;;;;1611465;72;806;-59
2022/06/11 07:37:01;;;;;;;;;;;25.40;41.60;;;;;;1615551;72;1538;-57
2022/06/11 07:39:03;;;;;;;;;;;25.40;42.20;;;;;;1610150;72;750;-59
2022/06/11 07:41:05;;;;;;;;;;;25.40;42.10;;;;;;1614906;72;776;-60
2022/06/11 07:43:07;;;;;;;;;;;25.50;42.10;;;;;;1609619;72;1937;-61
2022/06/11 07:45:10;;;;;;;;;;;25.40;42.10;;;;;;1614650;72;738;-58
2022/06/11 07:47:11;;;;;;;;;;;25.50;41.80;;;;;;1623460;72;1154;-59
2022/06/11 07:49:13;;;;;;;;;;;25.50;41.30;;;;;;1606597;72;895;-58
2022/06/11 07:51:21;;;;;;;;;;;25.40;40.70;;;;;;1616172;72;749;-57
2022/06/11 07:53:23;;;;;;;;;;;25.40;41.00;;;;;;1612425;72;789;-58
2022/06/11 07:55:25;;;;;;;;;;;25.40;40.50;;;;;;1616683;72;697;-57
2022/06/11 07:57:27;;;;;;;;;;;25.40;40.70;;;;;;1617316;72;1563;-58
2022/06/11 07:59:29;;;;;;;;;;;25.50;40.90;;;;;;1619246;72;723;-57
2022/06/11 08:01:31;;;;;;;;;;;25.50;40.90;;;;;;1624358;72;804;-59
2022/06/11 08:03:32;;;;;;;;;;;25.50;40.70;;;;;;1618800;72;1938;-56
2022/06/11 08:05:34;;;;;;;;;;;25.60;40.70;;;;;;1609363;72;1112;-59
2022/06/11 08:07:36;;;;;;;;;;;25.80;40.70;;;;;;1614305;72;710;-59
2022/06/11 08:09:38;;;;;;;;;;;25.60;40.60;;;;;;1611894;72;789;-59
2022/06/11 08:11:40;;;;;;;;;;;25.50;41.00;;;;;;1614894;72;1526;-58
2022/06/11 08:13:42;;;;;;;;;;;25.60;39.30;;;;;;1614994;72;943;-59
2022/06/11 08:15:45;;;;;;;;;;;25.50;39.70;;;;;;1615072;72;1190;-57
2022/06/11 08:17:47;;;;;;;;;;;25.50;40.20;;;;;;1620485;72;761;-59
2022/06/11 08:19:49;;;;;;;;;;;25.50;40.50;;;;;;1606656;72;796;-56
2022/06/11 08:21:50;;;;;;;;;;;25.50;39.40;;;;;;1629868;72;766;-57
2022/06/11 08:23:52;;;;;;;;;;;25.40;38.40;;;;;;1626692;72;1942;-59
2022/06/11 08:25:54;;;;;;;;;;;25.30;39.50;;;;;;1622129;72;1717;-58
2022/06/11 08:27:56;;;;;;;;;;;25.30;39.70;;;;;;1615948;72;721;-58
2022/06/11 08:29:58;;;;;;;;;;;25.30;39.70;;;;;;1608404;72;736;-59
2022/06/11 08:32:00;;;;;;;;;;;25.30;39.80;;;;;;1616083;72;702;-56
2022/06/11 08:34:02;;;;;;;;;;;25.30;40.10;;;;;;1621385;72;774;-58
2022/06/11 08:36:04;;;;;;;;;;;25.30;40.00;;;;;;1612768;72;1140;-57
2022/06/11 08:38:06;;;;;;;;;;;25.40;39.80;;;;;;1617803;72;1523;-58
2022/06/11 08:40:09;;;;;;;;;;;25.40;39.70;;;;;;1613161;72;721;-60
2022/06/11 08:42:35;;;;;;;;;;;25.40;39.70;;;;;;1614602;72;1938;-57
2022/06/11 08:44:37;;;;;;;;;;;25.40;38.30;;;;;;1613976;72;676;-59
2022/06/11 08:46:40;;;;;;;;;;;25.30;38.20;;;;;;1617001;72;1179;-60
2022/06/11 08:48:49;;;;;;;;;;;25.30;39.50;;;;;;1615188;72;779;-59
2022/06/11 08:50:59;;;;;;;;;;;25.40;38.90;;;;;;1608095;72;1130;-58
2022/06/11 08:53:01;;;;;;;;;;;25.40;39.50;;;;;;1610567;72;1986;-60
2022/06/11 08:55:03;;;;;;;;;;;25.50;39.20;;;;;;1619993;72;760;-58
2022/06/11 08:57:15;;;;;;;;;;;25.50;39.40;;;;;;1618396;72;1126;-59
2022/06/11 08:59:19;;;;;;;;;;;25.50;38.70;;;;;;1612271;72;951;-59
2022/06/11 09:01:31;;;;;;;;;;;25.40;38.60;;;;;;1605246;72;697;-58
2022/06/11 09:03:47;;;;;;;;;;;25.50;38.80;;;;;;1613226;72;1920;-60
2022/06/11 09:05:57;;;;;;;;;;;25.40;38.20;;;;;;1614389;72;1810;-60
2022/06/11 09:08:18;;;;;;;;;;;25.40;37.40;;;;;;1608797;72;1659;-58
2022/06/11 09:10:21;;;;;;;;;;;25.30;38.10;;;;;;1609723;72;728;-61
2022/06/11 09:12:28;;;;;;;;;;;25.30;38.90;;;;;;1610842;72;728;-58
2022/06/11 09:14:34;;;;;;;;;;;25.40;38.90;;;;;;1615234;72;912;-59
2022/06/11 09:16:37;;;;;;;;;;;25.40;38.90;;;;;;1619238;72;1139;-60
2022/06/11 09:18:57;;;;;;;;;;;25.40;37.80;;;;;;1602608;72;1503;-58
2022/06/11 09:21:03;;;;;;;;;;;25.40;38.50;;;;;;1620953;72;1298;-61
2022/06/11 09:23:19;;;;;;;;;;;25.40;38.60;;;;;;1613467;72;1930;-61
2022/06/11 09:25:28;;;;;;;;;;;25.30;37.30;;;;;;1611757;72;2123;-60
2022/06/11 09:27:41;;;;;;;;;;;25.20;38.40;;;;;;1615999;72;694;-60
2022/06/11 09:29:47;;;;;;;;;;;25.20;38.90;;;;;;1615395;72;1413;-58
2022/06/11 09:32:07;;;;;;;;;;;25.20;38.90;;;;;;1608699;72;1891;-60
2022/06/11 09:34:14;;;;;;;;;;;25.30;38.90;;;;;;1610927;72;743;-61
2022/06/11 09:36:24;;;;;;;;;;;25.30;37.50;;;;;;1614629;72;1652;-60
2022/06/11 09:38:39;;;;;;;;;;;25.20;38.70;;;;;;1619689;72;791;-60
2022/06/11 09:40:42;;;;;;;;;;;25.20;37.90;;;;;;1616379;72;878;-60
2022/06/11 09:42:54;;;;;;;;;;;25.20;38.60;;;;;;1610699;72;1891;-60
2022/06/11 09:44:58;;;;;;;;;;;25.20;38.40;;;;;;1615743;72;714;-58
2022/06/11 09:47:01;;;;;;;;;;;25.20;37.60;;;;;;1614032;72;1150;-61
2022/06/11 09:49:07;;;;;;;;;;;25.10;38.60;;;;;;1612431;72;2211;-60
2022/06/11 09:51:14;;;;;;;;;;;25.20;38.80;;;;;;1616180;72;1720;-60
2022/06/11 09:53:33;;;;;;;;;;;25.20;37.00;;;;;;1618571;72;810;-61
2022/06/11 09:55:43;;;;;;;;;;;25.10;36.80;;;;;;1621871;72;1214;-60
2022/06/11 09:57:49;;;;;;;;;;;24.90;38.00;;;;;;1615097;72;730;-59
2022/06/11 09:59:52;;;;;;;;;;;25.00;38.60;;;;;;1620707;72;783;-61
2022/06/11 10:01:56;;;;;;;;;;;25.00;37.60;;;;;;1615325;72;775;-58
2022/06/11 10:03:59;;;;;;;;;;;25.00;38.90;;;;;;1606615;72;1932;-58
2022/06/11 10:06:12;;;;;;;;;;;25.00;38.90;;;;;;1616187;72;1858;-57
2022/06/11 10:08:24;;;;;;;;;;;25.00;38.50;;;;;;1623837;72;758;-59
2022/06/11 10:10:28;;;;;;;;;;;25.10;38.80;;;;;;1604124;72;790;-60
2022/06/11 10:12:31;;;;;;;;;;;25.10;38.70;;;;;;1613955;72;1013;-60
2022/06/11 10:14:41;;;;;;;;;;;25.10;38.20;;;;;;1613291;71;1784;-58
2022/06/11 10:16:43;;;;;;;;;;;25.00;38.70;;;;;;1600726;72;1595;-61
2022/06/11 10:18:45;;;;;;;;;;;25.10;38.90;;;;;;1611172;72;782;-58
2022/06/11 10:20:49;;;;;;;;;;;25.10;38.80;;;;;;1613984;72;694;-60
2022/06/11 10:22:55;;;;;;;;;;;25.20;38.90;;;;;;1626888;72;1988;-60
2022/06/11 10:25:05;;;;;;;;;;;25.20;36.90;;;;;;1619103;72;768;-60
2022/06/11 10:27:08;;;;;;;;;;;25.10;38.60;;;;;;1607518;72;1122;-58
2022/06/11 10:29:12;;;;;;;;;;;25.10;38.60;;;;;;1608092;72;1771;-60
2022/06/11 10:31:16;;;;;;;;;;;25.10;38.10;;;;;;1607547;72;1582;-58
2022/06/11 10:33:38;;;;;;;;;;;25.10;38.40;;;;;;1615381;72;616;-58
2022/06/11 10:35:41;;;;;;;;;;;25.10;38.60;;;;;;1609114;72;1931;-58
2022/06/11 10:37:45;;;;;;;;;;;25.00;38.30;;;;;;1601209;72;931;-59
2022/06/11 10:39:51;;;;;;;;;;;25.00;37.00;;;;;;1596589;72;1769;-61
2022/06/11 10:41:55;;;;;;;;;;;25.00;37.80;;;;;;1608593;72;1815;-59
2022/06/11 10:44:13;;;;;;;;;;;24.90;37.90;;;;;;1614299;72;1941;-59
2022/06/11 10:46:15;;;;;;;;;;;24.80;35.10;;;;;;1602185;72;1550;-60
2022/06/11 10:48:19;;;;;;;;;;;24.90;37.60;;;;;;1620689;72;727;-60
2022/06/11 10:50:25;;;;;;;;;;;24.80;37.10;;;;;;1624403;72;726;-59
2022/06/11 10:52:28;;;;;;;;;;;24.80;35.10;;;;;;1613546;72;846;-60
2022/06/11 10:54:30;;;;;;;;;;;24.80;33.40;;;;;;1599925;72;1892;-57
2022/06/11 10:56:37;;;;;;;;;;;24.80;35.30;;;;;;1625601;72;1131;-57
2022/06/11 10:58:43;;;;;;;;;;;24.70;36.80;;;;;;1591147;72;1996;-58
2022/06/11 11:00:50;;;;;;;;;;;24.80;36.60;;;;;;1606801;72;760;-57
2022/06/11 11:03:03;;;;;;;;;;;24.90;36.90;;;;;;1592997;72;1922;-60
2022/06/11 11:05:07;;;;;;;;;;;24.90;37.10;;;;;;1608891;72;1790;-58
2022/06/11 11:07:13;;;;;;;;;;;25.00;36.40;;;;;;1609415;72;1903;-59
2022/06/11 11:09:16;;;;;;;;;;;24.90;35.70;;;;;;1604525;72;866;-58
2022/06/11 11:11:18;;;;;;;;;;;24.90;36.40;;;;;;1613850;72;1034;-58
2022/06/11 11:13:27;;;;;;;;;;;25.00;33.80;;;;;;1612993;72;1291;-57
2022/06/11 11:15:31;;;;;;;;;;;24.90;34.20;;;;;;1611851;72;2109;-60
2022/06/11 11:17:33;;;;;;;;;;;24.90;35.80;;;;;;1616606;72;1820;-60
2022/06/11 11:19:36;;;;;;;;;;;24.80;35.20;;;;;;1592189;72;788;-60
2022/06/11 11:21:49;;;;;;;;;;;24.80;31.50;;;;;;1611064;72;1900;-60
2022/06/11 11:23:51;;;;;;;;;;;24.80;35.20;;;;;;1616018;72;1928;-58
2022/06/11 11:25:54;;;;;;;;;;;24.70;31.80;;;;;;1613669;72;1104;-60
2022/06/11 11:27:56;;;;;;;;;;;24.70;35.10;;;;;;1603602;72;1565;-57
2022/06/11 11:30:00;;;;;;;;;;;24.70;35.00;;;;;;1613163;72;693;-58
2022/06/11 11:32:04;;;;;;;;;;;24.70;33.40;;;;;;1590071;72;677;-60
2022/06/11 11:34:14;;;;;;;;;;;24.70;34.60;;;;;;1592862;72;927;-59
2022/06/11 11:36:23;;;;;;;;;;;24.70;35.20;;;;;;1605504;72;1146;-58
2022/06/11 11:38:25;;;;;;;;;;;24.80;35.40;;;;;;1620118;72;793;-59
2022/06/11 11:40:31;;;;;;;;;;;24.80;34.00;;;;;;1612832;72;742;-58
2022/06/11 11:42:34;;;;;;;;;;;24.70;34.70;;;;;;1611620;72;1580;-59
2022/06/11 11:44:38;;;;;;;;;;;24.70;35.40;;;;;;1613422;72;1947;-60
2022/06/11 11:46:40;;;;;;;;;;;24.80;35.60;;;;;;1602315;72;1175;-60
2022/06/11 11:48:52;;;;;;;;;;;24.70;33.90;;;;;;1608890;73;719;-60
2022/06/11 11:50:58;;;;;;;;;;;24.70;33.60;;;;;;1619221;72;754;-58
2022/06/11 11:53:04;;;;;;;;;;;24.70;35.40;;;;;;1616720;72;726;-61
2022/06/11 11:55:11;;;;;;;;;;;24.70;35.00;;;;;;1611902;72;1515;-60
2022/06/11 11:57:12;;;;;;;;;;;24.70;35.20;;;;;;1600985;72;1608;-58
2022/06/11 11:59:22;;;;;;;;;;;24.80;34.50;;;;;;1605379;72;714;-60
2022/06/11 12:01:24;;;;;;;;;;;24.90;35.90;;;;;;1601272;72;722;-60
2022/06/11 12:03:34;;;;;;;;;;;24.80;35.20;;;;;;1625646;71;1925;-57
2022/06/11 12:05:41;;;;;;;;;;;24.80;35.40;;;;;;1626244;72;1142;-60
2022/06/11 12:07:43;;;;;;;;;;;24.80;35.50;;;;;;1613175;72;1789;-58
2022/06/11 12:09:52;;;;;;;;;;;24.90;35.50;;;;;;1618533;71;1460;-60
2022/06/11 12:11:58;;;;;;;;;;;24.80;35.50;;;;;;1598395;72;710;-60
2022/06/11 12:14:05;;;;;;;;;;;24.80;34.20;;;;;;1607451;72;749;-61
2022/06/11 12:16:07;;;;;;;;;;;24.80;35.50;;;;;;1609023;72;1595;-60
2022/06/11 12:18:13;;;;;;;;;;;24.80;35.60;;;;;;1613377;72;808;-60
2022/06/11 12:20:33;;;;;;;;;;;24.80;35.50;;;;;;1610946;72;710;-58